Terminal Aerodrome Forecast
Issued by NWS Portland, OR

Home | Current Version | Previous Version | Text Only | Print | Product List | Glossary On
Versions: 1 2 3 4 5 6 7 8 9 10 11 12 13 14 15 16 17 18 19 20 21 22 23 24 25 26 27 28 29 30 31 32 33 34 35 36 37 38
000
FTUS46 KPQR 300520
TAFTTD
TAF
KTTD 300520Z 3006/3106 29006KT P6SM SCT025 BKN040 OVC060
      TEMPO 3006/3009 BKN025 OVC040
     FM300900 26005KT P6SM -SHRA BKN025 OVC045
     FM301400 27005KT P6SM -SHRA SCT025 BKN035 BKN060
     FM302000 28008KT P6SM VCSH SCT030 BKN060
     FM310100 30006KT P6SM SCT035 BKN060=

USA.gov is the U.S. government's official web portal to all federal, state and local government web resources and services.